Time;durP1;ratioP1;P1;durP2;ratioP2;P2;SDS_P1;SDS_P2;PMS_P1;PMS_P2;Temp;Humidity;BMP_temperature;BMP_pressure;BME280_temperature;BME280_humidity;BME280_pressure;Samples;Min_cycle;Max_cycle;Signal;HPM_P1;HPM_P2
2022/01/13 00:02:07;;;;;;;67.95;27.80;;;;;;;1.36;100.00;104116.94;5085717;28;20122;-79
2022/01/13 00:04:32;;;;;;;68.95;27.40;;;;;;;1.37;100.00;104112.63;5084739;28;20165;-79
2022/01/13 00:06:58;;;;;;;71.20;28.88;;;;;;;1.37;100.00;104112.63;5083663;28;20111;-80
2022/01/13 00:09:23;;;;;;;65.07;27.48;;;;;;;1.34;100.00;104112.56;5087640;28;20016;-80
2022/01/13 00:11:49;;;;;;;74.53;27.77;;;;;;;1.35;100.00;104120.38;5091095;28;20031;-79
2022/01/13 00:17:10;;;;;;;70.57;30.80;;;;;;;1.36;100.00;104129.91;5085661;28;20032;-80
2022/01/13 00:24:57;;;;;;;80.80;28.02;;;;;;;1.33;100.00;104121.22;5085144;28;20560;-80
2022/01/13 00:27:24;;;;;;;79.25;28.77;;;;;;;1.32;100.00;104122.94;5081394;28;20122;-80
2022/01/13 00:29:50;;;;;;;73.82;27.42;;;;;;;1.32;100.00;104116.88;5089911;28;20063;-79
2022/01/13 00:32:16;;;;;;;67.53;28.10;;;;;;;1.33;100.00;104123.81;5090529;28;20443;-79
2022/01/13 00:34:43;;;;;;;65.30;27.02;;;;;;;1.32;100.00;104128.13;5090381;28;20032;-79
2022/01/13 00:37:09;;;;;;;65.88;25.92;;;;;;;1.35;100.00;104129.88;5090629;28;20092;-80
2022/01/13 00:39:34;;;;;;;80.13;27.98;;;;;;;1.28;100.00;104121.13;5089575;28;20020;-79
2022/01/13 00:42:00;;;;;;;75.85;28.95;;;;;;;1.32;100.00;104130.72;5089469;28;20035;-80
2022/01/13 00:44:25;;;;;;;75.75;27.45;;;;;;;1.31;100.00;104120.31;5090253;28;20089;-79
2022/01/13 00:47:00;;;;;;;65.63;27.83;;;;;;;1.31;100.00;104120.31;5090515;28;20028;-78
2022/01/13 00:49:26;;;;;;;62.58;26.30;;;;;;;1.34;100.00;104122.94;5078852;28;20052;-78
2022/01/13 00:51:52;;;;;;;69.55;26.70;;;;;;;1.33;100.00;104110.84;5088678;28;20032;-77
2022/01/13 00:54:17;;;;;;;64.10;25.58;;;;;;;1.32;100.00;104117.75;5090037;28;20107;-77
2022/01/13 00:56:43;;;;;;;57.28;25.33;;;;;;;1.30;100.00;104119.44;5089045;28;20024;-77
2022/01/13 00:59:10;;;;;;;54.92;25.65;;;;;;;1.31;100.00;104120.31;5089597;28;20050;-77
2022/01/13 01:01:37;;;;;;;59.83;25.98;;;;;;;1.31;100.00;104117.72;5089160;28;20450;-77
2022/01/13 01:04:04;;;;;;;55.42;24.70;;;;;;;1.25;100.00;104100.31;5084524;28;20020;-77
2022/01/13 01:06:30;;;;;;;60.35;24.90;;;;;;;1.25;100.00;104106.38;5089401;28;20063;-77
2022/01/13 01:08:56;;;;;;;57.47;25.75;;;;;;;1.27;100.00;104110.72;5089483;28;20491;-77
2022/01/13 01:11:24;;;;;;;63.15;25.05;;;;;;;1.17;100.00;104097.56;5089188;28;20032;-77
2022/01/13 01:13:50;;;;;;;78.45;25.10;;;;;;;1.22;100.00;104116.72;5085638;28;20484;-77
2022/01/13 01:16:18;;;;;;;60.38;25.58;;;;;;;1.23;100.00;104115.00;5070380;28;20066;-80
2022/01/13 01:29:14;;;;;;;54.03;23.63;;;;;;;1.11;100.00;104113.03;5089622;28;20193;-80
2022/01/13 01:31:46;;;;;;;53.67;23.90;;;;;;;1.07;100.00;104116.41;5088193;28;20107;-80
2022/01/13 01:36:59;;;;;;;65.40;23.73;;;;;;;1.08;100.00;104119.88;5087386;28;20050;-80
2022/01/13 01:39:25;;;;;;;51.10;22.60;;;;;;;1.05;100.00;104125.88;5079173;28;20455;-81
2022/01/13 01:41:53;;;;;;;59.80;22.83;;;;;;;1.04;100.00;104121.56;5090046;28;20057;-80
2022/01/13 01:44:25;;;;;;;49.92;22.65;;;;;;;1.03;100.00;104122.41;5089148;28;20107;-80
2022/01/13 01:46:51;;;;;;;53.17;22.95;;;;;;;1.02;100.00;104120.66;5089465;28;20039;-78
2022/01/13 01:49:20;;;;;;;51.42;22.20;;;;;;;1.00;100.00;104109.38;5089994;28;20028;-78
2022/01/13 01:51:48;;;;;;;50.53;21.50;;;;;;;1.00;100.00;104109.38;5081833;28;20377;-78
2022/01/13 01:54:14;;;;;;;50.50;20.92;;;;;;;1.02;100.00;104112.00;5081976;28;20025;-78
2022/01/13 01:56:41;;;;;;;46.13;21.52;;;;;;;1.00;100.00;104101.59;5088930;28;20036;-78
2022/01/13 01:59:10;;;;;;;50.00;22.10;;;;;;;1.01;100.00;104102.47;5089301;28;20035;-78
2022/01/13 02:01:36;;;;;;;52.47;22.65;;;;;;;0.96;100.00;104092.03;5088606;28;20031;-78
2022/01/13 02:04:01;;;;;;;49.38;21.17;;;;;;;1.00;100.00;104088.63;5076467;28;20033;-78
2022/01/13 02:06:27;;;;;;;62.22;22.77;;;;;;;0.99;100.00;104096.38;5069293;28;20071;-78
2022/01/13 02:08:52;;;;;;;50.15;21.02;;;;;;;0.98;100.00;104097.25;5088510;28;20520;-78
2022/01/13 02:11:18;;;;;;;69.82;20.08;;;;;;;0.96;100.00;104097.22;5085398;28;20055;-78
2022/01/13 02:13:50;;;;;;;60.53;19.95;;;;;;;0.94;100.00;104101.50;5085977;28;20019;-78
2022/01/13 02:19:17;;;;;;;43.70;19.70;;;;;;;0.96;100.00;104106.72;5026201;28;20175;-78
2022/01/13 02:21:43;;;;;;;68.63;19.92;;;;;;;0.95;100.00;104108.44;5074749;28;20028;-78
2022/01/13 02:24:09;;;;;;;52.55;19.77;;;;;;;0.94;100.00;104102.38;5096978;28;20391;-78
2022/01/13 02:26:34;;;;;;;42.13;19.38;;;;;;;0.94;100.00;104117.03;5087170;28;20108;-78
2022/01/13 02:29:00;;;;;;;38.28;18.98;;;;;;;0.96;100.00;104115.34;5086312;28;20456;-78
2022/01/13 02:31:26;;;;;;;45.65;19.77;;;;;;;0.94;100.00;104119.63;5081910;28;20063;-78
2022/01/13 02:33:53;;;;;;;49.03;20.70;;;;;;;0.95;100.00;104116.19;5077343;28;20399;-78
2022/01/13 02:36:20;;;;;;;46.75;21.05;;;;;;;0.96;100.00;104115.34;5082048;28;20032;-78
2022/01/13 02:38:50;;;;;;;51.63;20.42;;;;;;;0.95;100.00;104105.84;5075872;28;20028;-78
2022/01/13 02:41:16;;;;;;;45.70;21.17;;;;;;;0.99;100.00;104107.63;5079725;28;20073;-78
2022/01/13 02:43:43;;;;;;;50.55;22.02;;;;;;;0.96;100.00;104097.22;5086907;28;20028;-78
2022/01/13 02:46:54;;;;;;;55.10;20.95;;;;;;;1.02;100.00;104106.81;5087129;28;20032;-78
2022/01/13 02:49:23;;;;;;;54.92;20.95;;;;;;;0.98;100.00;104099.81;5087906;28;20027;-77
2022/01/13 02:51:50;;;;;;;60.35;20.92;;;;;;;0.96;100.00;104107.59;5081419;28;20036;-78
2022/01/13 02:54:16;;;;;;;50.95;21.30;;;;;;;0.92;100.00;104106.66;5072539;28;20502;-78
2022/01/13 02:56:43;;;;;;;75.05;23.38;;;;;;;0.92;100.00;104111.84;5080086;28;20030;-78
2022/01/13 02:59:09;;;;;;;65.35;21.48;;;;;;;0.93;100.00;104108.41;5079816;28;20480;-78
2022/01/13 03:01:35;;;;;;;55.45;21.60;;;;;;;0.93;100.00;104111.00;5083906;28;20027;-78
2022/01/13 03:04:05;;;;;;;81.85;22.80;;;;;;;0.90;100.00;104107.47;5086753;28;20548;-78
2022/01/13 03:06:36;;;;;;;61.53;22.75;;;;;;;0.91;100.00;104120.47;5079304;28;20020;-78
2022/01/13 03:09:04;;;;;;;72.85;22.92;;;;;;;0.90;100.00;104104.88;5080920;28;20039;-78
2022/01/13 03:11:36;;;;;;;83.43;23.20;;;;;;;0.90;100.00;104110.06;5068154;28;20071;-78
2022/01/13 03:14:03;;;;;;;92.25;22.50;;;;;;;0.87;100.00;104104.81;5081715;28;20334;-78
2022/01/13 03:16:29;;;;;;;66.95;22.55;;;;;;;0.85;100.00;104093.56;5085568;28;20039;-78
2022/01/13 03:18:55;;;;;;;67.18;24.45;;;;;;;0.86;100.00;104090.13;5088172;28;20024;-78
2022/01/13 03:21:20;;;;;;;70.15;24.15;;;;;;;0.86;100.00;104095.31;5087546;28;20430;-78
2022/01/13 03:23:46;;;;;;;87.47;24.92;;;;;;;0.85;100.00;104089.25;5086356;28;20043;-78
2022/01/13 03:26:14;;;;;;;86.95;25.38;;;;;;;0.85;100.00;104088.38;5087607;28;20035;-78
2022/01/13 03:28:50;;;;;;;72.07;25.92;;;;;;;0.80;100.00;104082.19;5086480;28;20028;-78
2022/01/13 03:31:17;;;;;;;65.43;26.25;;;;;;;0.85;100.00;104086.66;5085463;28;20058;-78
2022/01/13 03:33:43;;;;;;;68.80;27.10;;;;;;;0.86;100.00;104088.41;5087491;28;20051;-78
2022/01/13 03:36:09;;;;;;;73.78;26.70;;;;;;;0.87;100.00;104091.88;5084662;28;20104;-78
2022/01/13 03:38:34;;;;;;;81.78;27.80;;;;;;;0.87;100.00;104092.75;5078690;28;20028;-78
2022/01/13 03:41:00;;;;;;;69.18;27.45;;;;;;;0.85;100.00;104089.25;5087848;28;20032;-77
2022/01/13 03:43:25;;;;;;;78.13;27.58;;;;;;;0.88;100.00;104085.84;5087001;28;20028;-78
2022/01/13 03:45:51;;;;;;;93.90;28.00;;;;;;;0.88;100.00;104078.94;5083115;28;20047;-78
2022/01/13 03:48:16;;;;;;;83.88;28.00;;;;;;;0.88;100.00;104084.13;5083164;28;20082;-77
2022/01/13 03:50:44;;;;;;;81.93;28.00;;;;;;;0.88;100.00;104081.53;5105827;28;20073;-77
2022/01/13 03:53:27;;;;;;;79.25;28.05;;;;;;;0.91;100.00;104076.41;5079450;28;20370;-77
2022/01/13 03:56:31;;;;;;;84.72;28.50;;;;;;;0.92;100.00;104085.91;5080267;28;20034;-77
2022/01/13 03:59:29;;;;;;;66.47;26.63;;;;;;;0.92;100.00;104085.03;5098733;28;20035;-77
2022/01/13 04:02:09;;;;;;;78.07;27.38;;;;;;;0.91;100.00;104086.75;5075878;28;20114;-78
2022/01/13 04:04:40;;;;;;;79.75;27.80;;;;;;;0.90;100.00;104091.91;5088716;28;20423;-77
2022/01/13 04:07:16;;;;;;;87.70;29.35;;;;;;;0.91;100.00;104078.13;5106354;28;20531;-77
2022/01/13 04:09:42;;;;;;;117.10;30.10;;;;;;;0.88;100.00;104072.88;5089708;28;20111;-77
2022/01/13 04:12:11;;;;;;;87.03;28.88;;;;;;;0.86;100.00;104077.16;5082721;28;20106;-77
2022/01/13 04:14:44;;;;;;;81.90;28.25;;;;;;;0.87;100.00;104071.13;5106107;28;20127;-77
2022/01/13 04:17:12;;;;;;;82.45;28.55;;;;;;;0.84;100.00;104066.75;5084615;28;20020;-77
2022/01/13 04:19:37;;;;;;;93.07;29.35;;;;;;;0.81;100.00;104071.91;5083752;28;20027;-77
2022/01/13 04:22:04;;;;;;;86.47;28.13;;;;;;;0.84;100.00;104076.25;5073698;28;20024;-78
2022/01/13 04:24:30;;;;;;;88.28;28.58;;;;;;;0.81;100.00;104076.19;5099978;28;20032;-78
2022/01/13 04:26:56;;;;;;;79.90;28.35;;;;;;;0.79;100.00;104077.88;5088705;28;20032;-78
2022/01/13 04:29:32;;;;;;;81.85;27.83;;;;;;;0.79;100.00;104078.72;5088333;28;20030;-78
2022/01/13 04:31:57;;;;;;;84.20;28.92;;;;;;;0.79;100.00;104073.56;5089856;28;20115;-78
2022/01/13 04:34:22;;;;;;;82.32;27.83;;;;;;;0.80;100.00;104074.41;5083796;28;20525;-78
2022/01/13 04:36:49;;;;;;;86.35;28.42;;;;;;;0.81;100.00;104071.03;5087766;28;20101;-78
2022/01/13 04:39:15;;;;;;;98.88;29.15;;;;;;;0.82;100.00;104067.59;5089059;28;20126;-78
2022/01/13 04:41:44;;;;;;;91.75;29.30;;;;;;;0.81;100.00;104065.84;5089760;28;20028;-78
2022/01/13 04:44:14;;;;;;;83.55;28.63;;;;;;;0.85;100.00;104062.44;5089118;28;20024;-78
2022/01/13 04:46:40;;;;;;;92.18;29.00;;;;;;;0.83;100.00;104058.97;5082083;28;20089;-77
2022/01/13 04:49:07;;;;;;;100.85;29.58;;;;;;;0.85;100.00;104067.63;5088995;28;20062;-78
2022/01/13 04:51:33;;;;;;;101.97;29.92;;;;;;;0.84;100.00;104058.13;5088594;28;20028;-77
2022/01/13 04:53:59;;;;;;;107.57;30.73;;;;;;;0.85;100.00;104072.81;5088594;28;20027;-78
2022/01/13 04:56:38;;;;;;;88.30;31.08;;;;;;;0.83;100.00;104065.03;5081991;28;20456;-78
2022/01/13 04:59:04;;;;;;;88.32;29.60;;;;;;;0.82;100.00;104059.81;5078523;28;20032;-77
2022/01/13 05:01:30;;;;;;;163.02;30.90;;;;;;;0.82;100.00;104057.22;5082975;28;20023;-78
2022/01/13 05:03:56;;;;;;;101.70;30.13;;;;;;;0.81;100.00;104060.66;5086301;28;20476;-77
2022/01/13 05:06:22;;;;;;;113.75;30.10;;;;;;;0.75;100.00;104061.38;5087561;28;20028;-78
2022/01/13 05:08:48;;;;;;;115.82;30.75;;;;;;;0.78;100.00;104065.75;5089794;28;20028;-77
2022/01/13 05:11:14;;;;;;;102.68;29.13;;;;;;;0.76;100.00;104051.88;5088504;28;20024;-77
2022/01/13 05:13:39;;;;;;;145.27;31.13;;;;;;;0.75;100.00;104060.50;5089158;28;20562;-78
2022/01/13 05:16:06;;;;;;;107.65;28.30;;;;;;;0.72;100.00;104063.06;5089374;28;20024;-77
2022/01/13 05:21:19;;;;;;;103.93;29.48;;;;;;;0.69;100.00;104061.28;5074602;28;20094;-77
2022/01/13 05:23:44;;;;;;;106.60;30.00;;;;;;;0.70;100.00;104062.16;5088321;28;20031;-77
2022/01/13 05:26:10;;;;;;;95.53;28.30;;;;;;;0.73;100.00;104072.56;5090275;28;20024;-78
2022/01/13 05:28:36;;;;;;;97.55;29.25;;;;;;;0.73;100.00;104067.38;5081941;28;20395;-77
2022/01/13 05:31:02;;;;;;;94.88;28.67;;;;;;;0.75;100.00;104066.56;5089521;28;20081;-78
2022/01/13 05:33:27;;;;;;;96.20;29.77;;;;;;;0.77;100.00;104066.59;5089121;28;20048;-78
2022/01/13 05:35:53;;;;;;;115.57;30.58;;;;;;;0.75;100.00;104061.38;5081884;28;20032;-78
2022/01/13 05:38:19;;;;;;;116.78;31.23;;;;;;;0.77;100.00;104069.19;5077801;28;20031;-77
2022/01/13 05:40:44;;;;;;;170.45;32.17;;;;;;;0.75;100.00;104065.69;5091484;28;20373;-77
2022/01/13 05:43:10;;;;;;;111.03;30.98;;;;;;;0.77;100.00;104071.78;5088678;28;20162;-77
2022/01/13 05:45:35;;;;;;;111.10;31.35;;;;;;;0.76;100.00;104068.31;5073307;28;20031;-77
2022/01/13 05:48:02;;;;;;;99.82;29.98;;;;;;;0.76;100.00;104060.53;5089120;28;20031;-77
2022/01/13 05:50:29;;;;;;;104.68;30.08;;;;;;;0.78;100.00;104065.75;5084808;28;20028;-78
2022/01/13 05:52:54;;;;;;;135.85;31.45;;;;;;;0.78;100.00;104074.41;5096586;28;20513;-78
2022/01/13 05:55:20;;;;;;;108.20;31.52;;;;;;;0.78;100.00;104070.94;5085807;28;20028;-78
2022/01/13 05:57:46;;;;;;;124.63;31.25;;;;;;;0.78;100.00;104068.34;5104632;28;20177;-79
2022/01/13 06:00:15;;;;;;;107.70;32.33;;;;;;;0.78;100.00;104076.13;5079864;28;20551;-78
2022/01/13 06:02:42;;;;;;;123.80;32.35;;;;;;;0.78;100.00;104077.00;5087364;28;20032;-78
2022/01/13 06:05:08;;;;;;;104.57;31.35;;;;;;;0.77;100.00;104064.88;5087591;28;20024;-78
2022/01/13 06:07:34;;;;;;;116.40;31.50;;;;;;;0.79;100.00;104059.72;5103495;28;20020;-79
2022/01/13 06:10:00;;;;;;;106.88;31.98;;;;;;;0.80;100.00;104059.78;5086426;28;20024;-79
2022/01/13 06:12:32;;;;;;;106.00;31.75;;;;;;;0.81;100.00;104055.47;5093373;28;20028;-79
2022/01/13 06:15:04;;;;;;;95.10;31.15;;;;;;;0.82;100.00;104058.09;5080734;28;20078;-78
2022/01/13 06:17:29;;;;;;;110.43;32.47;;;;;;;0.81;100.00;104055.47;5078573;28;20036;-79
2022/01/13 06:19:55;;;;;;;128.18;31.52;;;;;;;0.83;100.00;104059.84;5079597;28;20023;-78
2022/01/13 06:22:22;;;;;;;105.22;30.73;;;;;;;0.81;100.00;104050.28;5103333;28;20442;-78
2022/01/13 06:24:48;;;;;;;119.95;31.42;;;;;;;0.81;100.00;104051.16;5076918;28;20087;-79
2022/01/13 06:27:14;;;;;;;115.70;30.98;;;;;;;0.80;100.00;104043.31;5083600;28;20139;-78
2022/01/13 06:29:39;;;;;;;129.38;28.48;;;;;;;0.79;100.00;104047.63;5080875;28;20054;-79
2022/01/13 06:32:04;;;;;;;168.20;30.73;;;;;;;0.79;100.00;104042.44;5087952;28;20071;-78
2022/01/13 06:34:30;;;;;;;112.72;29.75;;;;;;;0.79;100.00;104046.75;5094470;28;20040;-78
2022/01/13 06:36:55;;;;;;;114.80;30.13;;;;;;;0.76;100.00;104045.00;5084255;28;20396;-78
2022/01/13 06:39:20;;;;;;;115.35;29.58;;;;;;;0.75;100.00;104042.38;5085319;28;20040;-78
2022/01/13 06:41:46;;;;;;;128.30;30.45;;;;;;;0.76;100.00;104044.13;5080810;28;20020;-78
2022/01/13 06:44:12;;;;;;;104.20;30.80;;;;;;;0.78;100.00;104047.59;5088651;28;20389;-78
2022/01/13 06:46:38;;;;;;;100.20;28.77;;;;;;;0.79;100.00;104047.63;5073407;28;20033;-78
2022/01/13 06:49:03;;;;;;;101.28;29.70;;;;;;;0.79;100.00;104058.00;5080134;28;20483;-79
2022/01/13 06:51:28;;;;;;;103.75;30.45;;;;;;;0.78;100.00;104055.38;5079644;28;20025;-78
2022/01/13 06:53:54;;;;;;;100.97;28.95;;;;;;;0.80;100.00;104057.19;5088348;28;20031;-78
2022/01/13 06:56:21;;;;;;;95.05;28.17;;;;;;;0.81;100.00;104055.47;5086812;28;20133;-79
2022/01/13 06:58:49;;;;;;;131.40;29.70;;;;;;;0.81;100.00;104048.56;5079065;28;20133;-79
2022/01/13 07:01:14;;;;;;;110.43;29.08;;;;;;;0.80;100.00;104049.41;5086894;28;20491;-79
2022/01/13 07:03:39;;;;;;;131.02;29.90;;;;;;;0.84;100.00;104056.41;5084385;28;20036;-78
2022/01/13 07:06:05;;;;;;;109.03;29.38;;;;;;;0.84;100.00;104055.53;5073825;28;20028;-78
2022/01/13 07:08:32;;;;;;;121.25;30.35;;;;;;;0.87;100.00;104060.75;5086596;28;20054;-78
2022/01/13 07:10:59;;;;;;;114.22;30.35;;;;;;;0.86;100.00;104054.72;5076166;28;20048;-78
2022/01/13 07:13:25;;;;;;;99.15;29.80;;;;;;;0.88;100.00;104046.94;5076058;28;20078;-78
2022/01/13 07:15:50;;;;;;;106.78;28.67;;;;;;;0.90;100.00;104053.03;5078538;28;20060;-79
2022/01/13 07:18:15;;;;;;;130.85;30.20;;;;;;;0.90;100.00;104050.44;5087781;28;20028;-77
2022/01/13 07:20:43;;;;;;;112.20;29.50;;;;;;;0.90;100.00;104050.44;5090882;28;20103;-78
2022/01/13 07:23:08;;;;;;;110.25;29.20;;;;;;;0.90;100.00;104046.13;5086282;28;20021;-78
2022/01/13 07:25:33;;;;;;;94.35;28.65;;;;;;;0.92;100.00;104053.94;5088387;28;20024;-78
2022/01/13 07:27:59;;;;;;;91.97;27.85;;;;;;;0.93;100.00;104055.69;5092425;28;20484;-78
2022/01/13 07:30:24;;;;;;;95.53;27.65;;;;;;;0.93;100.00;104055.69;5091461;28;20468;-78
2022/01/13 07:32:49;;;;;;;110.38;28.25;;;;;;;0.97;100.00;104057.47;5092157;28;20112;-78
2022/01/13 07:35:15;;;;;;;81.18;26.67;;;;;;;0.96;100.00;104058.31;5091578;28;20035;-78
2022/01/13 07:37:42;;;;;;;75.00;25.83;;;;;;;0.94;100.00;104057.44;5082426;28;20130;-78
2022/01/13 07:40:13;;;;;;;86.70;27.63;;;;;;;0.95;100.00;104051.41;5085077;28;20035;-78
2022/01/13 07:42:41;;;;;;;103.63;27.50;;;;;;;0.96;100.00;104055.72;5091945;28;20027;-78
2022/01/13 07:45:07;;;;;;;74.97;25.15;;;;;;;0.96;100.00;104055.72;5076272;28;20053;-78
2022/01/13 07:47:33;;;;;;;106.75;26.92;;;;;;;0.97;100.00;104052.28;5091883;28;20484;-78
2022/01/13 07:49:58;;;;;;;97.65;27.23;;;;;;;1.00;100.00;104060.13;5091836;28;20031;-78
2022/01/13 07:52:25;;;;;;;79.70;25.98;;;;;;;0.99;100.00;104055.78;5106859;28;20046;-77
2022/01/13 07:54:51;;;;;;;80.18;26.48;;;;;;;1.01;100.00;104067.06;5090152;28;20016;-77
2022/01/13 07:57:16;;;;;;;77.03;27.33;;;;;;;1.01;100.00;104059.28;5091264;28;20020;-77
2022/01/13 07:59:41;;;;;;;74.10;26.45;;;;;;;1.01;100.00;104064.47;5106340;28;20043;-78
2022/01/13 08:02:07;;;;;;;91.00;26.48;;;;;;;1.03;100.00;104062.78;5091042;28;20028;-78
2022/01/13 08:04:32;;;;;;;81.43;27.17;;;;;;;1.06;100.00;104073.19;5087069;28;20023;-78
2022/01/13 08:06:59;;;;;;;87.97;26.73;;;;;;;1.06;100.00;104067.13;5081233;28;20047;-78
2022/01/13 08:09:25;;;;;;;83.70;26.63;;;;;;;1.07;100.00;104064.56;5082929;28;20089;-78
2022/01/13 08:11:51;;;;;;;95.00;27.08;;;;;;;1.09;100.00;104068.06;5083623;28;20472;-78
2022/01/13 08:14:16;;;;;;;78.28;27.88;;;;;;;1.09;100.00;104075.84;5083527;28;20020;-79
2022/01/13 08:16:44;;;;;;;72.65;26.85;;;;;;;1.12;100.00;104078.47;5090871;28;20012;-79
2022/01/13 08:21:53;;;;;;;76.18;26.67;;;;;;;1.13;100.00;104090.59;5090537;28;20039;-79
2022/01/13 08:24:18;;;;;;;104.88;29.67;;;;;;;1.14;100.00;104073.31;5106044;28;20536;-79
2022/01/13 08:26:44;;;;;;;85.75;26.85;;;;;;;1.15;100.00;104078.53;5090071;28;20030;-79
2022/01/13 08:29:09;;;;;;;76.13;27.13;;;;;;;1.16;100.00;104085.47;5089894;28;20058;-79
2022/01/13 08:31:34;;;;;;;76.78;26.63;;;;;;;1.17;100.00;104078.56;5088974;28;20023;-77
2022/01/13 08:34:00;;;;;;;91.10;27.10;;;;;;;1.19;100.00;104080.31;5088021;28;20052;-78
2022/01/13 08:36:25;;;;;;;88.78;27.35;;;;;;;1.20;100.00;104089.88;5088971;28;20188;-78
2022/01/13 08:38:50;;;;;;;108.20;27.77;;;;;;;1.20;100.00;104091.56;5091067;28;20706;-78
2022/01/13 08:41:16;;;;;;;108.13;27.65;;;;;;;1.19;100.00;104090.69;5087742;28;20104;-78
2022/01/13 08:43:42;;;;;;;85.38;27.83;;;;;;;1.22;100.00;104090.78;5085686;28;20020;-82
2022/01/13 08:46:07;;;;;;;102.75;27.05;;;;;;;1.19;100.00;104085.50;5082006;28;20097;-80
2022/01/13 08:48:34;;;;;;;122.40;28.50;;;;;;;1.19;100.00;104085.50;5076383;28;20422;-79
2022/01/13 08:51:01;;;;;;;79.18;26.92;;;;;;;1.23;100.00;104102.03;5081826;28;20032;-79
2022/01/13 08:53:26;;;;;;;101.95;27.85;;;;;;;1.24;100.00;104099.47;5079171;28;20024;-80
2022/01/13 08:55:54;;;;;;;84.15;28.38;;;;;;;1.24;100.00;104099.47;5083695;28;20035;-79
2022/01/13 08:58:22;;;;;;;104.07;28.02;;;;;;;1.27;100.00;104097.75;5082341;28;20385;-80
2022/01/13 09:00:48;;;;;;;89.07;26.75;;;;;;;1.28;100.00;104104.69;5097528;28;20602;-80
2022/01/13 09:03:14;;;;;;;81.10;27.88;;;;;;;1.28;100.00;104105.56;5082084;28;20086;-80
2022/01/13 09:05:41;;;;;;;73.65;27.88;;;;;;;1.30;100.00;104108.19;5086285;28;20168;-79
2022/01/13 09:08:09;;;;;;;90.60;27.52;;;;;;;1.31;100.00;104109.94;5081491;28;20522;-80
2022/01/13 09:10:37;;;;;;;117.15;28.55;;;;;;;1.26;100.00;104104.66;5081339;28;20020;-80
2022/01/13 09:13:03;;;;;;;110.85;29.80;;;;;;;1.30;100.00;104108.19;5090274;28;20025;-80
2022/01/13 09:15:38;;;;;;;81.38;27.20;;;;;;;1.28;100.00;104110.75;5088391;28;20483;-80
2022/01/13 09:18:16;;;;;;;97.93;28.48;;;;;;;1.32;100.00;104122.06;5105730;28;20053;-79
2022/01/13 09:20:42;;;;;;;89.68;27.00;;;;;;;1.31;100.00;104110.81;5087214;28;20480;-77
2022/01/13 09:23:08;;;;;;;90.75;27.02;;;;;;;1.33;100.00;104123.81;5089022;28;20035;-77
2022/01/13 09:25:34;;;;;;;88.72;27.35;;;;;;;1.33;100.00;104123.81;5083250;28;20391;-77
2022/01/13 09:28:01;;;;;;;120.32;27.50;;;;;;;1.33;100.00;104118.63;5089603;28;20028;-77
2022/01/13 09:30:27;;;;;;;124.85;28.70;;;;;;;1.29;100.00;104115.09;5088909;28;20678;-81
2022/01/13 09:32:53;;;;;;;101.57;27.00;;;;;;;1.32;100.00;104122.06;5088213;28;20097;-82
2022/01/13 09:35:18;;;;;;;106.93;27.63;;;;;;;1.28;100.00;104120.25;5076797;28;20020;-81
2022/01/13 09:37:43;;;;;;;98.85;26.58;;;;;;;1.29;100.00;104122.00;5069665;28;20023;-84
2022/01/13 09:40:10;;;;;;;130.13;29.08;;;;;;;1.24;100.00;104120.22;5080966;28;20024;-83
2022/01/13 09:42:40;;;;;;;90.30;28.00;;;;;;;1.33;100.00;104131.59;5080878;28;20032;-84
2022/01/13 09:45:06;;;;;;;130.70;27.88;;;;;;;1.31;100.00;104121.19;5089301;28;20492;-84
2022/01/13 09:47:33;;;;;;;101.75;28.70;;;;;;;1.32;100.00;104117.75;5089595;28;20036;-84
2022/01/13 09:50:02;;;;;;;130.02;28.90;;;;;;;1.33;100.00;104114.28;5081965;28;20112;-84
2022/01/13 09:52:28;;;;;;;121.15;29.40;;;;;;;1.34;100.00;104109.97;5080831;28;20456;-82
2022/01/13 09:54:55;;;;;;;149.73;29.60;;;;;;;1.36;100.00;104111.75;5106024;28;20027;-82
2022/01/13 09:57:21;;;;;;;108.70;27.83;;;;;;;1.42;100.00;104123.94;5088458;28;20392;-78
2022/01/13 09:59:46;;;;;;;97.50;28.45;;;;;;;1.44;100.00;104120.53;5089564;28;20024;-78
2022/01/13 10:02:12;;;;;;;132.45;28.65;;;;;;;1.45;100.00;104121.41;5080672;28;20016;-78
2022/01/13 10:04:49;;;;;;;137.30;29.02;;;;;;;1.45;100.00;104124.00;5080579;28;20102;-78
2022/01/13 10:07:29;;;;;;;103.53;28.30;;;;;;;1.44;100.00;104117.06;5080340;28;20036;-78
2022/01/13 10:09:56;;;;;;;136.90;28.88;;;;;;;1.48;100.00;104118.84;5081737;28;20084;-78
2022/01/13 10:12:36;;;;;;;100.93;27.80;;;;;;;1.50;100.00;104117.16;5081190;28;20039;-78
2022/01/13 10:17:31;;;;;;;98.90;27.15;;;;;;;1.53;100.00;104123.28;5080309;28;20035;-81
2022/01/13 10:19:57;;;;;;;96.28;25.83;;;;;;;1.56;100.00;104119.84;5083706;28;20020;-80
2022/01/13 10:22:32;;;;;;;122.25;26.83;;;;;;;1.57;100.00;104124.19;5082045;28;20103;-80
2022/01/13 10:24:58;;;;;;;113.38;27.45;;;;;;;1.55;100.00;104111.19;5087664;28;20023;-80
2022/01/13 10:27:35;;;;;;;95.28;26.27;;;;;;;1.60;100.00;104115.56;5084995;28;20024;-81
2022/01/13 10:30:07;;;;;;;106.93;27.20;;;;;;;1.62;100.00;104117.38;5097014;28;20028;-80
2022/01/13 10:32:41;;;;;;;100.40;27.42;;;;;;;1.64;100.00;104117.41;5075440;28;20035;-80
2022/01/13 10:35:14;;;;;;;91.97;26.65;;;;;;;1.64;100.00;104126.06;5087295;28;20043;-80
2022/01/13 10:37:45;;;;;;;115.97;27.70;;;;;;;1.67;100.00;104126.09;5077947;28;20387;-80
2022/01/13 10:40:21;;;;;;;100.68;27.20;;;;;;;1.67;100.00;104126.09;5076871;28;20028;-81
2022/01/13 10:45:37;;;;;;;94.53;26.45;;;;;;;1.70;100.00;104126.16;5079994;28;20067;-78
2022/01/13 10:48:24;;;;;;;99.65;27.05;;;;;;;1.74;100.00;104120.16;5087714;28;20546;-79
2022/01/13 10:51:11;;;;;;;103.53;26.02;;;;;;;1.76;100.00;104121.06;5087064;28;20035;-78
2022/01/13 10:53:39;;;;;;;91.88;24.77;;;;;;;1.75;100.00;104121.91;5079557;28;20027;-78
2022/01/13 10:56:10;;;;;;;104.40;26.90;;;;;;;1.80;100.00;104121.97;5103645;28;20042;-78
2022/01/13 10:58:47;;;;;;;95.00;25.73;;;;;;;1.80;100.00;104122.84;5079246;28;20031;-79
2022/01/13 11:01:14;;;;;;;106.13;26.27;;;;;;;1.79;100.00;104109.84;5080096;28;20485;-79
2022/01/13 11:03:42;;;;;;;85.72;24.55;;;;;;;1.77;100.00;104112.41;5080126;28;20055;-79
2022/01/13 11:06:09;;;;;;;82.25;25.42;;;;;;;1.78;100.00;104102.91;5088360;28;20099;-79
2022/01/13 11:08:46;;;;;;;100.47;27.48;;;;;;;1.81;100.00;104102.94;5077808;28;20053;-78
2022/01/13 11:11:24;;;;;;;90.00;26.08;;;;;;;1.83;100.00;104102.13;5088191;28;20081;-79
2022/01/13 11:13:54;;;;;;;84.57;24.63;;;;;;;1.83;100.00;104094.34;5082030;28;20040;-78
2022/01/13 11:16:20;;;;;;;83.47;25.45;;;;;;;1.85;100.00;104096.94;5099735;28;20563;-78
2022/01/13 11:18:46;;;;;;;87.40;25.30;;;;;;;1.85;100.00;104087.44;5088878;28;20062;-78
2022/01/13 11:21:12;;;;;;;83.80;25.23;;;;;;;1.86;100.00;104086.59;5088209;28;20055;-78
2022/01/13 11:23:38;;;;;;;86.85;24.83;;;;;;;1.84;100.00;104083.09;5084195;28;20028;-78
2022/01/13 11:26:06;;;;;;;85.78;24.75;;;;;;;1.87;100.00;104080.53;5085793;28;20116;-78
2022/01/13 11:28:34;;;;;;;105.13;24.95;;;;;;;1.85;100.00;104069.25;5086533;28;20035;-79
2022/01/13 11:31:00;;;;;;;92.53;25.25;;;;;;;1.89;100.00;104076.25;5086800;28;20483;-78
2022/01/13 11:33:26;;;;;;;93.18;24.75;;;;;;;1.93;100.00;104076.28;5103361;28;20044;-78
2022/01/13 11:35:56;;;;;;;100.28;25.95;;;;;;;1.96;100.00;104071.13;5087001;28;20069;-79
2022/01/13 11:38:24;;;;;;;88.28;25.83;;;;;;;1.94;100.00;104068.50;5087717;28;20789;-79
2022/01/13 11:40:58;;;;;;;86.38;25.65;;;;;;;1.94;100.00;104068.50;5088453;28;20031;-79
2022/01/13 11:43:36;;;;;;;95.63;25.10;;;;;;;2.00;100.00;104072.91;5086835;28;20032;-78
2022/01/13 11:46:22;;;;;;;83.22;25.23;;;;;;;2.01;100.00;104074.69;5098011;28;20028;-78